createdAt,value
2022-08-30T00:01:34.526Z,97975.00
2022-08-30T00:04:02.757Z,97980.00
2022-08-30T00:06:30.700Z,97974.00
2022-08-30T00:08:57.829Z,97956.00
2022-08-30T00:11:28.054Z,97959.00
2022-08-30T00:13:57.386Z,97960.00
2022-08-30T00:16:26.367Z,97959.00
2022-08-30T00:18:53.513Z,97977.00
2022-08-30T00:21:22.609Z,97973.00
2022-08-30T00:23:49.573Z,97950.00
2022-08-30T00:26:16.535Z,97961.00
2022-08-30T00:28:43.520Z,97966.00
2022-08-30T00:31:10.703Z,97969.00
2022-08-30T00:33:42.527Z,97980.00
2022-08-30T00:36:09.480Z,97974.00
2022-08-30T00:38:36.493Z,97961.00
2022-08-30T00:41:04.952Z,97965.00
2022-08-30T00:43:36.699Z,97955.00
2022-08-30T00:46:08.279Z,97950.00
2022-08-30T00:48:41.959Z,97965.00
2022-08-30T00:51:12.778Z,97959.00
2022-08-30T00:53:45.905Z,97954.00
2022-08-30T00:56:14.461Z,97965.00
2022-08-30T00:58:50.138Z,97954.00
2022-08-30T01:01:18.576Z,97965.00
2022-08-30T01:03:47.189Z,97965.00
2022-08-30T01:06:15.719Z,97955.00
2022-08-30T01:08:45.107Z,97969.00
2022-08-30T01:11:16.151Z,97953.00
2022-08-30T01:13:47.185Z,97956.00
2022-08-30T01:16:15.117Z,97970.00
2022-08-30T01:18:43.580Z,97962.00
2022-08-30T01:21:22.563Z,97977.00
2022-08-30T01:23:55.658Z,97966.00
2022-08-30T01:26:25.029Z,97971.00
2022-08-30T01:28:58.738Z,97973.00
2022-08-30T01:36:12.973Z,97958.00
2022-08-30T01:38:53.369Z,97952.00
2022-08-30T01:41:29.192Z,97973.00
2022-08-30T01:43:59.717Z,97966.00
2022-08-30T01:46:35.986Z,97955.00
2022-08-30T01:49:09.019Z,97970.00
2022-08-30T01:51:36.580Z,97970.00
2022-08-30T01:54:04.160Z,97971.00
2022-08-30T01:56:31.303Z,97958.00
2022-08-30T01:59:02.557Z,97974.00
2022-08-30T02:01:33.334Z,97985.00
2022-08-30T02:04:00.643Z,97977.00
2022-08-30T02:06:28.131Z,97962.00
2022-08-30T02:08:55.096Z,97960.00
2022-08-30T02:11:22.463Z,97953.00
2022-08-30T02:13:51.218Z,97957.00
2022-08-30T02:16:24.470Z,97963.00
2022-08-30T02:18:57.055Z,97966.00
2022-08-30T02:21:27.679Z,97970.00
2022-08-30T02:23:55.261Z,97966.00
2022-08-30T02:26:22.794Z,97972.00
2022-08-30T02:28:51.958Z,97959.00
2022-08-30T02:31:21.508Z,97971.00
2022-08-30T02:33:50.981Z,97964.00
2022-08-30T02:36:20.660Z,97958.00
2022-08-30T02:38:48.719Z,97964.00
2022-08-30T02:41:16.269Z,97963.00
2022-08-30T02:43:43.246Z,97960.00
2022-08-30T02:46:10.296Z,97972.00
2022-08-30T02:48:37.343Z,97949.00
2022-08-30T02:51:11.605Z,97938.00
2022-08-30T02:53:44.396Z,97944.00
2022-08-30T02:56:13.477Z,97939.00
2022-08-30T02:58:42.461Z,97950.00
2022-08-30T03:01:13.506Z,97950.00
2022-08-30T03:03:43.078Z,97949.00
2022-08-30T03:06:13.161Z,97922.00
2022-08-30T03:08:40.228Z,97934.00
2022-08-30T03:11:07.747Z,97931.00
2022-08-30T03:13:34.749Z,97925.00
2022-08-30T03:16:02.186Z,97937.00
2022-08-30T03:18:29.367Z,97928.00
2022-08-30T03:20:56.632Z,97932.00
2022-08-30T03:23:25.002Z,97935.00
2022-08-30T03:25:53.307Z,97937.00
2022-08-30T03:28:20.245Z,97940.00
2022-08-30T03:30:47.952Z,97944.00
2022-08-30T03:33:15.350Z,97942.00
2022-08-30T03:35:42.360Z,97927.00
2022-08-30T03:38:09.609Z,97930.00
2022-08-30T03:40:37.148Z,97931.00
2022-08-30T03:43:05.164Z,97936.00
2022-08-30T03:45:32.557Z,97924.00
2022-08-30T03:47:59.727Z,97935.00
2022-08-30T03:50:26.706Z,97941.00
2022-08-30T03:52:53.582Z,97940.00
2022-08-30T03:55:20.959Z,97941.00
2022-08-30T03:57:47.894Z,97940.00
2022-08-30T04:00:17.489Z,97945.00
2022-08-30T04:02:44.595Z,97937.00
2022-08-30T04:05:12.694Z,97934.00
2022-08-30T04:07:41.743Z,97924.00
2022-08-30T04:10:10.217Z,97916.00
2022-08-30T04:12:38.709Z,97937.00
2022-08-30T04:15:07.629Z,97942.00
2022-08-30T04:17:34.497Z,97940.00
2022-08-30T04:20:01.514Z,97935.00
2022-08-30T04:22:28.451Z,97930.00
2022-08-30T04:24:55.521Z,97930.00
2022-08-30T04:27:22.417Z,97929.00
2022-08-30T04:29:49.618Z,97946.00
2022-08-30T04:32:17.059Z,97938.00
2022-08-30T04:34:44.007Z,97940.00
2022-08-30T04:37:10.940Z,97933.00
2022-08-30T04:39:38.548Z,97931.00
2022-08-30T04:42:05.727Z,97934.00
2022-08-30T04:44:32.895Z,97943.00
2022-08-30T04:47:00.597Z,97937.00
2022-08-30T04:49:27.485Z,97946.00
2022-08-30T04:51:54.366Z,97954.00
2022-08-30T04:54:21.557Z,97954.00
2022-08-30T04:56:48.693Z,97950.00
2022-08-30T04:59:15.556Z,97962.00
2022-08-30T05:01:44.933Z,97966.00
2022-08-30T05:04:14.946Z,97955.00
2022-08-30T05:06:42.432Z,97961.00
2022-08-30T05:09:09.419Z,97963.00
2022-08-30T05:11:37.736Z,97962.00
2022-08-30T05:14:05.672Z,97963.00
2022-08-30T05:16:34.806Z,97959.00
2022-08-30T05:19:02.074Z,97972.00
2022-08-30T05:21:31.786Z,97974.00
2022-08-30T05:24:00.913Z,97972.00
2022-08-30T05:26:33.680Z,97977.00
2022-08-30T05:29:01.347Z,97971.00
2022-08-30T05:31:33.947Z,97970.00
2022-08-30T05:34:01.298Z,97969.00
2022-08-30T05:36:31.973Z,97975.00
2022-08-30T05:38:59.670Z,97978.00
2022-08-30T05:41:27.297Z,97976.00
2022-08-30T05:44:00.126Z,97976.00
2022-08-30T05:49:07.695Z,97982.00
2022-08-30T05:51:42.902Z,97984.00
2022-08-30T05:54:13.010Z,97984.00
2022-08-30T05:56:43.257Z,97979.00
2022-08-30T05:59:10.214Z,97975.00
2022-08-30T06:01:42.659Z,97981.00
2022-08-30T06:04:11.982Z,97981.00
2022-08-30T06:06:42.398Z,97963.00
2022-08-30T06:09:12.876Z,97974.00
2022-08-30T06:11:40.344Z,97972.00
2022-08-30T06:14:07.935Z,97965.00
2022-08-30T06:16:38.766Z,97969.00
2022-08-30T06:19:08.580Z,97979.00
2022-08-30T06:21:39.347Z,97987.00
2022-08-30T06:24:10.373Z,97987.00
2022-08-30T06:26:41.363Z,97997.00
2022-08-30T06:29:10.921Z,97985.00
2022-08-30T06:31:38.362Z,97978.00
2022-08-30T06:34:06.209Z,97986.00
2022-08-30T06:36:34.254Z,97991.00
2022-08-30T06:39:01.416Z,97982.00
2022-08-30T06:41:32.608Z,97977.00
2022-08-30T06:44:04.026Z,97971.00
2022-08-30T06:46:34.909Z,97979.00
2022-08-30T06:49:04.237Z,97981.00
2022-08-30T06:51:40.041Z,97982.00
2022-08-30T06:54:11.993Z,97979.00
2022-08-30T06:56:48.728Z,97976.00
2022-08-30T06:59:26.880Z,97975.00
2022-08-30T07:01:54.666Z,97973.00
2022-08-30T07:04:21.608Z,97985.00
2022-08-30T07:06:48.448Z,97979.00
2022-08-30T07:09:15.497Z,97979.00
2022-08-30T07:11:42.441Z,97977.00
2022-08-30T07:14:09.500Z,97978.00
2022-08-30T07:16:36.848Z,97978.00
2022-08-30T07:19:06.786Z,97987.00
2022-08-30T07:21:43.750Z,97971.00
2022-08-30T07:24:12.526Z,97972.00
2022-08-30T07:26:44.123Z,97986.00
2022-08-30T07:29:11.177Z,97977.00
2022-08-30T07:31:38.274Z,97978.00
2022-08-30T07:34:07.366Z,97974.00
2022-08-30T07:36:36.490Z,97978.00
2022-08-30T07:39:06.273Z,97983.00
2022-08-30T07:41:38.917Z,97983.00
2022-08-30T07:44:08.621Z,97973.00
2022-08-30T07:46:40.873Z,97969.00
2022-08-30T07:49:11.048Z,97972.00
2022-08-30T07:51:39.420Z,97979.00
2022-08-30T07:54:07.013Z,97983.00
2022-08-30T07:56:35.044Z,97974.00
2022-08-30T07:59:01.937Z,97969.00
2022-08-30T08:01:29.076Z,97985.00
2022-08-30T08:03:56.221Z,97984.00
2022-08-30T08:06:23.660Z,97986.00
2022-08-30T08:08:51.577Z,97980.00
2022-08-30T08:11:26.839Z,97984.00
2022-08-30T08:13:56.437Z,97989.00
2022-08-30T08:16:26.796Z,97984.00
2022-08-30T08:18:55.091Z,97986.00
2022-08-30T08:21:24.471Z,97973.00
2022-08-30T08:23:51.846Z,97987.00
2022-08-30T08:26:20.153Z,97988.00
2022-08-30T08:28:47.736Z,97988.00
2022-08-30T08:31:27.445Z,97978.00
2022-08-30T08:34:03.177Z,97984.00
2022-08-30T08:36:31.302Z,97977.00
2022-08-30T08:38:58.576Z,97986.00
2022-08-30T08:41:42.599Z,97978.00
2022-08-30T08:44:59.310Z,97981.00
2022-08-30T08:47:50.715Z,97988.00
2022-08-30T08:50:21.145Z,97988.00
2022-08-30T08:53:46.486Z,97991.00
2022-08-30T08:56:18.561Z,97986.00
2022-08-30T08:58:49.745Z,97986.00
2022-08-30T09:01:21.398Z,97982.00
2022-08-30T09:03:49.570Z,97971.00
2022-08-30T09:06:51.772Z,97980.00
2022-08-30T09:09:26.909Z,97968.00
2022-08-30T09:11:54.022Z,97969.00
2022-08-30T09:14:30.066Z,97962.00
2022-08-30T09:17:12.072Z,97981.00
2022-08-30T09:19:59.174Z,97961.00
2022-08-30T09:22:38.842Z,97978.00
2022-08-30T09:25:41.712Z,97965.00
2022-08-30T09:28:16.131Z,97970.00
2022-08-30T09:31:12.170Z,97961.00
2022-08-30T09:33:39.644Z,97962.00
2022-08-30T09:36:29.315Z,97954.00
2022-08-30T09:39:15.897Z,97959.00
2022-08-30T09:41:48.243Z,97949.00
2022-08-30T09:44:24.520Z,97957.00
2022-08-30T09:46:57.219Z,97952.00
2022-08-30T09:49:44.303Z,97958.00
2022-08-30T09:52:41.740Z,97952.00
2022-08-30T09:56:03.243Z,97941.00
2022-08-30T09:58:51.011Z,97953.00
2022-08-30T10:01:30.489Z,97935.00
2022-08-30T10:04:35.105Z,97939.00
2022-08-30T10:07:13.085Z,97944.00
2022-08-30T10:10:22.422Z,97938.00
2022-08-30T10:13:05.979Z,97932.00
2022-08-30T10:15:50.101Z,97929.00
2022-08-30T10:18:34.469Z,97936.00
2022-08-30T10:21:19.566Z,97928.00
2022-08-30T10:24:20.997Z,97925.00
2022-08-30T10:27:08.564Z,97932.00
2022-08-30T10:29:49.500Z,97920.00
2022-08-30T10:32:44.052Z,97940.00
2022-08-30T10:35:22.385Z,97927.00
2022-08-30T10:38:10.130Z,97942.00
2022-08-30T10:41:03.128Z,97932.00
2022-08-30T10:43:51.094Z,97934.00
2022-08-30T10:47:08.997Z,97931.00
2022-08-30T10:49:47.968Z,97941.00
2022-08-30T10:52:37.330Z,97937.00
2022-08-30T10:55:08.636Z,97941.00
2022-08-30T10:57:38.631Z,97936.00
2022-08-30T11:00:16.775Z,97945.00
2022-08-30T11:03:39.916Z,97944.00
2022-08-30T11:06:25.597Z,97935.00
2022-08-30T11:09:26.681Z,97926.00
2022-08-30T11:12:35.995Z,97921.00
2022-08-30T11:15:19.390Z,97937.00
2022-08-30T11:18:11.175Z,97941.00
2022-08-30T11:20:54.999Z,97939.00
2022-08-30T11:23:33.297Z,97931.00
2022-08-30T11:26:20.282Z,97938.00
2022-08-30T11:28:47.610Z,97935.00
2022-08-30T11:31:20.700Z,97931.00
2022-08-30T11:34:01.304Z,97924.00
2022-08-30T11:36:37.932Z,97930.00
2022-08-30T11:39:55.110Z,97928.00
2022-08-30T11:42:38.685Z,97927.00
2022-08-30T11:45:25.407Z,97929.00
2022-08-30T11:48:05.413Z,97935.00
2022-08-30T11:50:58.293Z,97927.00
2022-08-30T11:54:25.197Z,97925.00
2022-08-30T11:57:05.046Z,97919.00
2022-08-30T11:59:56.988Z,97919.00
2022-08-30T12:02:59.227Z,97914.00
2022-08-30T12:05:45.480Z,97924.00
2022-08-30T12:08:21.175Z,97914.00
2022-08-30T12:10:57.262Z,97920.00
2022-08-30T12:13:43.535Z,97904.00
2022-08-30T12:16:12.423Z,97912.00
2022-08-30T12:18:46.523Z,97911.00
2022-08-30T12:21:23.139Z,97907.00
2022-08-30T12:24:17.411Z,97901.00
2022-08-30T12:26:48.817Z,97900.00
2022-08-30T12:29:27.221Z,97907.00
2022-08-30T12:32:05.225Z,97894.00
2022-08-30T12:34:44.276Z,97895.00
2022-08-30T12:37:36.907Z,97894.00
2022-08-30T12:40:07.150Z,97905.00
2022-08-30T12:42:49.815Z,97887.00
2022-08-30T12:45:21.429Z,97888.00
2022-08-30T12:47:56.709Z,97894.00
2022-08-30T12:50:42.756Z,97896.00
2022-08-30T12:53:16.498Z,97887.00
2022-08-30T12:55:56.771Z,97878.00
2022-08-30T12:58:52.086Z,97871.00
2022-08-30T13:01:29.851Z,97883.00
2022-08-30T13:04:21.861Z,97878.00
2022-08-30T13:06:55.643Z,97880.00
2022-08-30T13:09:34.613Z,97882.00
2022-08-30T13:12:07.571Z,97877.00
2022-08-30T13:14:42.485Z,97870.00
2022-08-30T13:17:20.306Z,97879.00
2022-08-30T13:20:20.578Z,97893.00
2022-08-30T13:23:11.095Z,97872.00
2022-08-30T13:25:39.681Z,97883.00
2022-08-30T13:28:07.993Z,97881.00
2022-08-30T13:30:35.543Z,97864.00
2022-08-30T13:33:04.389Z,97874.00
2022-08-30T13:35:32.648Z,97868.00
2022-08-30T13:38:02.343Z,97867.00
2022-08-30T13:40:29.546Z,97881.00
2022-08-30T13:42:56.951Z,97873.00
2022-08-30T13:45:41.593Z,97866.00
2022-08-30T13:48:11.454Z,97864.00
2022-08-30T13:50:39.395Z,97868.00
2022-08-30T13:53:08.962Z,97859.00
2022-08-30T13:55:38.514Z,97861.00
2022-08-30T13:58:05.811Z,97865.00
2022-08-30T14:00:37.517Z,97863.00
2022-08-30T14:03:05.309Z,97862.00
2022-08-30T14:08:45.180Z,97846.00
2022-08-30T14:11:18.421Z,97861.00
2022-08-30T14:16:37.271Z,97866.00
2022-08-30T14:19:06.112Z,97859.00
2022-08-30T14:21:36.125Z,97867.00
2022-08-30T14:24:06.253Z,97854.00
2022-08-30T14:26:47.424Z,97851.00
2022-08-30T14:29:22.348Z,97856.00
2022-08-30T14:31:50.148Z,97853.00
2022-08-30T14:34:18.486Z,97849.00
2022-08-30T14:36:46.643Z,97857.00
2022-08-30T14:39:21.934Z,97850.00
2022-08-30T14:41:53.895Z,97857.00
2022-08-30T14:44:24.156Z,97836.00
2022-08-30T14:46:51.825Z,97837.00
2022-08-30T14:49:21.500Z,97846.00
2022-08-30T14:51:48.886Z,97845.00
2022-08-30T14:54:27.717Z,97845.00
2022-08-30T14:56:55.657Z,97844.00
2022-08-30T14:59:23.576Z,97857.00
2022-08-30T15:01:50.550Z,97846.00
2022-08-30T15:04:18.558Z,97844.00
2022-08-30T15:06:49.646Z,97837.00
2022-08-30T15:09:25.812Z,97829.00
2022-08-30T15:11:58.643Z,97827.00
2022-08-30T15:14:26.248Z,97834.00
2022-08-30T15:16:56.434Z,97826.00
2022-08-30T15:19:24.546Z,97835.00
2022-08-30T15:21:52.054Z,97833.00
2022-08-30T15:24:24.992Z,97830.00
2022-08-30T15:26:59.621Z,97822.00
2022-08-30T15:29:28.090Z,97829.00
2022-08-30T15:31:58.854Z,97826.00
2022-08-30T15:34:27.427Z,97820.00
2022-08-30T15:36:56.159Z,97827.00
2022-08-30T15:39:24.286Z,97824.00
2022-08-30T15:41:54.709Z,97820.00
2022-08-30T15:44:26.060Z,97829.00
2022-08-30T15:46:53.117Z,97823.00
2022-08-30T15:49:23.402Z,97813.00
2022-08-30T15:51:54.082Z,97809.00
2022-08-30T15:54:23.847Z,97814.00
2022-08-30T15:56:58.768Z,97811.00
2022-08-30T15:59:31.469Z,97815.00
2022-08-30T16:01:58.699Z,97807.00
2022-08-30T16:04:27.988Z,97802.00
2022-08-30T16:06:55.071Z,97809.00
2022-08-30T16:09:23.522Z,97806.00
2022-08-30T16:11:50.703Z,97790.00
2022-08-30T16:14:17.648Z,97787.00
2022-08-30T16:16:47.808Z,97795.00
2022-08-30T16:19:15.153Z,97789.00
2022-08-30T16:21:44.198Z,97793.00
2022-08-30T16:24:13.611Z,97788.00
2022-08-30T16:26:42.753Z,97773.00
2022-08-30T16:29:12.277Z,97784.00
2022-08-30T16:31:44.171Z,97784.00
2022-08-30T16:34:14.230Z,97781.00
2022-08-30T16:36:41.280Z,97785.00
2022-08-30T16:39:09.773Z,97784.00
2022-08-30T16:41:39.498Z,97786.00
2022-08-30T16:44:06.753Z,97802.00
2022-08-30T16:46:36.348Z,97791.00
2022-08-30T16:49:05.578Z,97782.00
2022-08-30T16:51:36.898Z,97791.00
2022-08-30T16:54:07.768Z,97790.00
2022-08-30T16:56:36.129Z,97798.00
2022-08-30T16:59:10.876Z,97783.00
2022-08-30T17:01:39.366Z,97785.00
2022-08-30T17:04:08.024Z,97787.00
2022-08-30T17:06:36.005Z,97783.00
2022-08-30T17:09:12.281Z,97782.00
2022-08-30T17:11:40.245Z,97785.00
2022-08-30T17:14:07.615Z,97789.00
2022-08-30T17:16:36.926Z,97793.00
2022-08-30T17:19:05.583Z,97786.00
2022-08-30T17:21:32.514Z,97805.00
2022-08-30T17:24:02.307Z,97781.00
2022-08-30T17:26:36.442Z,97800.00
2022-08-30T17:29:05.375Z,97787.00
2022-08-30T17:31:32.826Z,97798.00
2022-08-30T17:34:04.305Z,97805.00
2022-08-30T17:36:35.212Z,97810.00
2022-08-30T17:39:10.965Z,97802.00
2022-08-30T17:41:45.281Z,97799.00
2022-08-30T17:44:20.340Z,97800.00
2022-08-30T17:46:47.436Z,97808.00
2022-08-30T17:49:15.137Z,97809.00
2022-08-30T17:51:44.259Z,97813.00
2022-08-30T17:54:12.898Z,97833.00
2022-08-30T17:56:42.966Z,97829.00
2022-08-30T17:59:16.318Z,97828.00
2022-08-30T18:01:44.874Z,97822.00
2022-08-30T18:04:15.194Z,97837.00
2022-08-30T18:06:47.589Z,97839.00
2022-08-30T18:09:14.579Z,97841.00
2022-08-30T18:11:41.700Z,97844.00
2022-08-30T18:14:11.437Z,97854.00
2022-08-30T18:16:50.101Z,97846.00
2022-08-30T18:19:24.395Z,97853.00
2022-08-30T18:21:52.603Z,97858.00
2022-08-30T18:24:20.658Z,97859.00
2022-08-30T18:26:47.723Z,97857.00
2022-08-30T18:29:15.249Z,97870.00
2022-08-30T18:31:55.776Z,97850.00
2022-08-30T18:34:23.273Z,97860.00
2022-08-30T18:36:50.150Z,97864.00
2022-08-30T18:39:17.121Z,97871.00
2022-08-30T18:41:44.231Z,97868.00
2022-08-30T18:44:27.204Z,97880.00
2022-08-30T18:46:57.213Z,97882.00
2022-08-30T18:49:26.317Z,97877.00
2022-08-30T18:51:54.161Z,97874.00
2022-08-30T18:54:21.321Z,97872.00
2022-08-30T18:56:49.741Z,97886.00
2022-08-30T18:59:18.622Z,97877.00
2022-08-30T19:01:46.923Z,97880.00
2022-08-30T19:04:22.385Z,97883.00
2022-08-30T19:07:02.771Z,97882.00
2022-08-30T19:09:29.839Z,97875.00
2022-08-30T19:11:56.797Z,97882.00
2022-08-30T19:14:24.157Z,97881.00
2022-08-30T19:16:56.226Z,97886.00
2022-08-30T19:19:23.818Z,97884.00
2022-08-30T19:21:51.604Z,97900.00
2022-08-30T19:24:20.261Z,97880.00
2022-08-30T19:26:48.508Z,97889.00
2022-08-30T19:29:15.410Z,97890.00
2022-08-30T19:31:43.806Z,97886.00
2022-08-30T19:34:12.118Z,97901.00
2022-08-30T19:36:39.204Z,97896.00
2022-08-30T19:39:06.877Z,97886.00
2022-08-30T19:41:33.929Z,97895.00
2022-08-30T19:44:03.010Z,97895.00
2022-08-30T19:46:31.037Z,97894.00
2022-08-30T19:49:00.977Z,97906.00
2022-08-30T19:51:27.940Z,97893.00
2022-08-30T19:53:56.409Z,97884.00
2022-08-30T19:56:26.353Z,97886.00
2022-08-30T19:58:53.404Z,97882.00
2022-08-30T20:01:33.541Z,97874.00
2022-08-30T20:04:07.997Z,97876.00
2022-08-30T20:06:36.121Z,97877.00
2022-08-30T20:09:05.961Z,97893.00
2022-08-30T20:11:38.923Z,97898.00
2022-08-30T20:14:06.688Z,97872.00
2022-08-30T20:16:37.475Z,97883.00
2022-08-30T20:19:07.952Z,97890.00
2022-08-30T20:21:36.349Z,97895.00
2022-08-30T20:24:05.134Z,97887.00
2022-08-30T20:26:38.061Z,97888.00
2022-08-30T20:29:07.198Z,97880.00
2022-08-30T20:31:35.437Z,97885.00
2022-08-30T20:34:03.761Z,97890.00
2022-08-30T20:36:30.709Z,97896.00
2022-08-30T20:38:58.712Z,97903.00
2022-08-30T20:41:28.882Z,97893.00
2022-08-30T20:43:58.179Z,97907.00
2022-08-30T20:46:25.250Z,97894.00
2022-08-30T20:48:52.728Z,97905.00
2022-08-30T20:51:23.004Z,97907.00
2022-08-30T20:53:50.661Z,97899.00
2022-08-30T20:56:22.076Z,97888.00
2022-08-30T20:58:50.356Z,97895.00
2022-08-30T21:01:18.224Z,97892.00
2022-08-30T21:03:47.755Z,97897.00
2022-08-30T21:06:16.616Z,97896.00
2022-08-30T21:08:44.544Z,97900.00
2022-08-30T21:11:12.242Z,97886.00
2022-08-30T21:13:39.675Z,97897.00
2022-08-30T21:16:07.493Z,97888.00
2022-08-30T21:18:36.349Z,97913.00
2022-08-30T21:21:14.039Z,97904.00
2022-08-30T21:23:41.870Z,97909.00
2022-08-30T21:26:11.020Z,97913.00
2022-08-30T21:28:40.074Z,97909.00
2022-08-30T21:31:18.148Z,97906.00
2022-08-30T21:33:47.327Z,97922.00
2022-08-30T21:36:34.387Z,97926.00
2022-08-30T21:39:02.466Z,97913.00
2022-08-30T21:41:31.377Z,97910.00
2022-08-30T21:44:02.728Z,97909.00
2022-08-30T21:46:32.291Z,97919.00
2022-08-30T21:49:01.999Z,97923.00
2022-08-30T21:51:34.769Z,97918.00
2022-08-30T21:54:02.560Z,97930.00
2022-08-30T21:56:29.593Z,97937.00
2022-08-30T21:58:56.922Z,97912.00
2022-08-30T22:01:28.641Z,97924.00
2022-08-30T22:04:00.529Z,97926.00
2022-08-30T22:06:31.155Z,97929.00
2022-08-30T22:09:01.349Z,97903.00
2022-08-30T22:11:31.466Z,97922.00
2022-08-30T22:13:59.018Z,97917.00
2022-08-30T22:16:28.868Z,97929.00
2022-08-30T22:18:55.819Z,97912.00
2022-08-30T22:21:27.252Z,97924.00
2022-08-30T22:23:54.881Z,97912.00
2022-08-30T22:26:22.491Z,97923.00
2022-08-30T22:28:51.085Z,97923.00
2022-08-30T22:31:20.526Z,97928.00
2022-08-30T22:33:50.712Z,97927.00
2022-08-30T22:36:32.291Z,97923.00
2022-08-30T22:39:02.171Z,97925.00
2022-08-30T22:41:34.043Z,97924.00
2022-08-30T22:44:02.090Z,97936.00
2022-08-30T22:46:33.691Z,97928.00
2022-08-30T22:49:05.074Z,97933.00
2022-08-30T22:51:33.795Z,97920.00
2022-08-30T22:54:01.484Z,97931.00
2022-08-30T22:56:30.686Z,97937.00
2022-08-30T22:58:58.046Z,97914.00
2022-08-30T23:01:33.183Z,97916.00
2022-08-30T23:04:03.347Z,97921.00
2022-08-30T23:06:30.506Z,97916.00
2022-08-30T23:08:57.972Z,97920.00
2022-08-30T23:11:25.667Z,97917.00
2022-08-30T23:13:53.664Z,97916.00
2022-08-30T23:16:22.134Z,97918.00
2022-08-30T23:18:49.192Z,97917.00
2022-08-30T23:21:29.742Z,97925.00
2022-08-30T23:24:17.062Z,97926.00
2022-08-30T23:27:04.676Z,97930.00
2022-08-30T23:29:51.860Z,97928.00
2022-08-30T23:32:41.522Z,97924.00
2022-08-30T23:35:30.529Z,97925.00
2022-08-30T23:38:20.725Z,97924.00
2022-08-30T23:41:06.063Z,97918.00
2022-08-30T23:43:51.390Z,97926.00
2022-08-30T23:46:40.593Z,97915.00
2022-08-30T23:49:26.374Z,97921.00
2022-08-30T23:52:12.137Z,97923.00
2022-08-30T23:55:00.208Z,97906.00
2022-08-30T23:57:45.765Z,97926.00
